Time;durP1;ratioP1;P1;durP2;ratioP2;P2;SDS_P1;SDS_P2;PMS_P1;PMS_P2;Temp;Humidity;BMP_temperature;BMP_pressure;BME280_temperature;BME280_humidity;BME280_pressure;Samples;Min_cycle;Max_cycle;Signal;HPM_P1;HPM_P2
2023/03/21 00:02:09;;;;;;;138.50;9.73;;;;;;;;;;4985636;28;20269;-56
2023/03/21 00:04:34;;;;;;;124.63;10.07;;;;;;;;;;4988084;28;20014;-58
2023/03/21 00:06:59;;;;;;;143.13;11.38;;;;;;;;;;4987329;28;20119;-56
2023/03/21 00:09:25;;;;;;;118.65;9.75;;;;;;;;;;4987011;28;20464;-56
2023/03/21 00:11:50;;;;;;;90.97;8.70;;;;;;;;;;4987196;28;20462;-55
2023/03/21 00:14:18;;;;;;;138.13;10.98;;;;;;;;;;4987549;28;20117;-56
2023/03/21 00:16:44;;;;;;;106.80;9.52;;;;;;;;;;4986695;28;20037;-57
2023/03/21 00:19:10;;;;;;;119.47;9.20;;;;;;;;;;4985817;28;20033;-58
2023/03/21 00:21:37;;;;;;;140.52;10.18;;;;;;;;;;4987355;28;20046;-58
2023/03/21 00:24:03;;;;;;;99.82;8.02;;;;;;;;;;4986092;28;20360;-57
2023/03/21 00:26:28;;;;;;;152.27;10.50;;;;;;;;;;4986306;28;20040;-56
2023/03/21 00:28:53;;;;;;;125.63;9.90;;;;;;;;;;4986448;28;20030;-56
2023/03/21 00:31:18;;;;;;;124.50;9.55;;;;;;;;;;4986183;28;20872;-56
2023/03/21 00:33:44;;;;;;;136.15;9.18;;;;;;;;;;4985995;28;20033;-57
2023/03/21 00:36:10;;;;;;;107.82;9.07;;;;;;;;;;4987528;28;20133;-55
2023/03/21 00:38:35;;;;;;;106.32;8.52;;;;;;;;;;4988068;28;20379;-57
2023/03/21 00:41:08;;;;;;;147.52;10.80;;;;;;;;;;4987263;28;20030;-55
2023/03/21 00:43:33;;;;;;;110.75;8.82;;;;;;;;;;4985610;28;20045;-56
2023/03/21 00:45:59;;;;;;;149.55;10.32;;;;;;;;;;4985033;28;20057;-58
2023/03/21 00:48:25;;;;;;;113.28;9.23;;;;;;;;;;4987973;28;20019;-58
2023/03/21 00:50:51;;;;;;;99.72;8.80;;;;;;;;;;4987200;28;20109;-56
2023/03/21 00:53:16;;;;;;;109.60;8.20;;;;;;;;;;4987068;28;20377;-56
2023/03/21 00:55:42;;;;;;;94.63;7.50;;;;;;;;;;4986364;28;20561;-58
2023/03/21 00:58:07;;;;;;;119.45;9.77;;;;;;;;;;4990621;28;20026;-55
2023/03/21 01:00:35;;;;;;;124.63;9.32;;;;;;;;;;4989417;28;20056;-56
2023/03/21 01:03:04;;;;;;;111.05;9.82;;;;;;;;;;4989518;28;20022;-55
2023/03/21 01:08:15;;;;;;;114.43;9.50;;;;;;;;;;4990552;28;20083;-55
2023/03/21 01:10:43;;;;;;;103.35;9.52;;;;;;;;;;4988512;28;20053;-56
2023/03/21 01:13:09;;;;;;;124.88;9.40;;;;;;;;;;4988898;28;20301;-56
2023/03/21 01:15:35;;;;;;;138.65;9.90;;;;;;;;;;4988778;28;20034;-58
2023/03/21 01:18:00;;;;;;;106.70;8.63;;;;;;;;;;4989554;28;20029;-55
2023/03/21 01:20:26;;;;;;;113.93;9.23;;;;;;;;;;4988377;28;20033;-55
2023/03/21 01:22:51;;;;;;;120.85;9.55;;;;;;;;;;4989549;28;20022;-56
2023/03/21 01:25:16;;;;;;;118.57;9.40;;;;;;;;;;4990170;28;20133;-56
2023/03/21 01:27:41;;;;;;;126.28;9.10;;;;;;;;;;4988719;28;20050;-57
2023/03/21 01:30:07;;;;;;;125.80;9.27;;;;;;;;;;4989186;28;20018;-56
2023/03/21 01:32:32;;;;;;;114.32;9.23;;;;;;;;;;4989810;28;20278;-56
2023/03/21 01:34:57;;;;;;;142.20;10.50;;;;;;;;;;4988159;28;20033;-56
2023/03/21 01:37:25;;;;;;;118.18;8.68;;;;;;;;;;4988755;28;20277;-58
2023/03/21 01:39:50;;;;;;;104.88;9.20;;;;;;;;;;4992708;28;20038;-57
2023/03/21 01:42:15;;;;;;;129.05;9.73;;;;;;;;;;4988861;28;20026;-58
2023/03/21 01:44:55;;;;;;;122.80;10.52;;;;;;;;;;4989903;28;20101;-55
2023/03/21 01:47:20;;;;;;;148.65;11.15;;;;;;;;;;4987907;28;20034;-57
2023/03/21 01:49:48;;;;;;;102.03;9.40;;;;;;;;;;4988829;28;20022;-57
2023/03/21 01:52:16;;;;;;;127.78;9.63;;;;;;;;;;4988494;28;20038;-57
2023/03/21 01:54:42;;;;;;;122.05;9.38;;;;;;;;;;4987900;28;20073;-57
2023/03/21 01:57:08;;;;;;;141.98;10.57;;;;;;;;;;4989088;28;20137;-56
2023/03/21 01:59:39;;;;;;;119.85;9.85;;;;;;;;;;4988346;28;20324;-57
2023/03/21 02:02:06;;;;;;;109.22;8.38;;;;;;;;;;4988657;28;20496;-57
2023/03/21 02:04:32;;;;;;;155.52;10.68;;;;;;;;;;4990191;28;20460;-58
2023/03/21 02:06:59;;;;;;;120.72;9.30;;;;;;;;;;4989925;28;20073;-58
2023/03/21 02:09:27;;;;;;;115.80;9.43;;;;;;;;;;4989552;28;20101;-58
2023/03/21 02:11:53;;;;;;;144.57;10.23;;;;;;;;;;4987721;28;20049;-57
2023/03/21 02:14:18;;;;;;;120.55;8.88;;;;;;;;;;4990550;28;20022;-57
2023/03/21 02:16:49;;;;;;;108.60;8.93;;;;;;;;;;4986598;28;20541;-55
2023/03/21 02:19:30;;;;;;;136.82;10.05;;;;;;;;;;4987944;28;20394;-56
2023/03/21 02:21:58;;;;;;;168.02;10.70;;;;;;;;;;4987047;28;20030;-58
2023/03/21 02:24:29;;;;;;;113.93;9.55;;;;;;;;;;4989413;28;20030;-58
2023/03/21 02:27:07;;;;;;;123.10;9.50;;;;;;;;;;4988159;28;20095;-56
2023/03/21 02:29:35;;;;;;;124.93;9.40;;;;;;;;;;4988840;28;20136;-55
2023/03/21 02:32:04;;;;;;;137.88;10.13;;;;;;;;;;4988687;28;20045;-57
2023/03/21 02:34:36;;;;;;;132.75;9.48;;;;;;;;;;4990459;28;20041;-57
2023/03/21 02:37:08;;;;;;;130.32;9.82;;;;;;;;;;4990529;28;20030;-58
2023/03/21 02:39:40;;;;;;;151.77;10.35;;;;;;;;;;4988986;28;20774;-58
2023/03/21 02:42:15;;;;;;;146.98;10.20;;;;;;;;;;4988533;28;20049;-56
2023/03/21 02:44:44;;;;;;;133.07;9.27;;;;;;;;;;4988525;28;20555;-56
2023/03/21 02:47:09;;;;;;;127.05;9.88;;;;;;;;;;4987440;28;20053;-55
2023/03/21 02:49:35;;;;;;;159.23;9.63;;;;;;;;;;4990064;28;20022;-56
2023/03/21 02:52:01;;;;;;;114.88;9.00;;;;;;;;;;4987177;28;20273;-55
2023/03/21 02:54:27;;;;;;;139.38;9.80;;;;;;;;;;4988079;28;20022;-57
2023/03/21 02:56:54;;;;;;;148.80;9.98;;;;;;;;;;4988180;28;20093;-56
2023/03/21 02:59:21;;;;;;;121.55;9.43;;;;;;;;;;4989629;28;20034;-56
2023/03/21 03:01:46;;;;;;;149.45;10.18;;;;;;;;;;4986179;28;20038;-57
2023/03/21 03:04:19;;;;;;;123.85;9.45;;;;;;;;;;4988155;28;20391;-56
2023/03/21 03:07:04;;;;;;;136.07;9.90;;;;;;;;;;4990289;28;20034;-58
2023/03/21 03:09:38;;;;;;;128.75;8.27;;;;;;;;;;4988017;28;20038;-58
2023/03/21 03:12:11;;;;;;;170.23;10.45;;;;;;;;;;4987520;28;20038;-56
2023/03/21 03:14:50;;;;;;;117.05;8.98;;;;;;;;;;4988551;28;20454;-57
2023/03/21 03:17:24;;;;;;;152.73;9.77;;;;;;;;;;4987031;28;20603;-56
2023/03/21 03:19:58;;;;;;;112.20;8.60;;;;;;;;;;4987683;28;20036;-57
2023/03/21 03:22:33;;;;;;;140.38;9.65;;;;;;;;;;4987712;28;20034;-56
2023/03/21 03:25:02;;;;;;;143.80;9.63;;;;;;;;;;4988223;28;20065;-56
2023/03/21 03:27:31;;;;;;;158.35;10.32;;;;;;;;;;4987625;28;20602;-58
2023/03/21 03:29:57;;;;;;;130.07;9.13;;;;;;;;;;4989227;28;20042;-57
2023/03/21 03:32:29;;;;;;;135.35;10.02;;;;;;;;;;4987643;28;20031;-56
2023/03/21 03:34:55;;;;;;;;;;;;;;;;;;4987791;28;20071;-57
2023/03/21 03:37:25;;;;;;;114.05;8.82;;;;;;;;;;4987861;28;19914;-57
2023/03/21 03:39:56;;;;;;;122.43;9.90;;;;;;;;;;4987097;28;20050;-58
2023/03/21 03:42:28;;;;;;;129.15;10.00;;;;;;;;;;4986078;28;20034;-57
2023/03/21 03:44:53;;;;;;;137.02;10.15;;;;;;;;;;4987401;28;20447;-57
2023/03/21 03:47:22;;;;;;;111.00;9.13;;;;;;;;;;4985787;28;20038;-56
2023/03/21 03:49:51;;;;;;;129.15;9.93;;;;;;;;;;4987744;28;20030;-56
2023/03/21 03:52:16;;;;;;;117.47;9.23;;;;;;;;;;4989116;28;20099;-57
2023/03/21 03:54:43;;;;;;;130.60;10.17;;;;;;;;;;4986886;28;20419;-57
2023/03/21 03:57:11;;;;;;;148.15;10.00;;;;;;;;;;4986819;28;20133;-58
2023/03/21 03:59:37;;;;;;;126.22;9.93;;;;;;;;;;4987447;28;20568;-58
2023/03/21 04:02:03;;;;;;;126.32;9.88;;;;;;;;;;4986158;28;20037;-56
2023/03/21 04:04:28;;;;;;;146.98;9.70;;;;;;;;;;4986923;28;20023;-57
2023/03/21 04:06:54;;;;;;;134.43;10.45;;;;;;;;;;4986601;28;20129;-57
2023/03/21 04:09:19;;;;;;;154.85;10.88;;;;;;;;;;4987380;28;20689;-57
2023/03/21 04:11:45;;;;;;;135.60;9.48;;;;;;;;;;4986821;28;20165;-55
2023/03/21 04:14:10;;;;;;;134.85;10.63;;;;;;;;;;4990305;28;20029;-59
2023/03/21 04:16:35;;;;;;;166.75;11.63;;;;;;;;;;4984740;28;20156;-56
2023/03/21 04:19:01;;;;;;;145.70;10.47;;;;;;;;;;4986261;28;20111;-58
2023/03/21 04:21:27;;;;;;;132.65;10.88;;;;;;;;;;4984603;28;20297;-56
2023/03/21 04:23:53;;;;;;;120.22;10.27;;;;;;;;;;4987652;28;20045;-58
2023/03/21 04:26:20;;;;;;;111.15;9.70;;;;;;;;;;4984566;28;20038;-58
2023/03/21 04:28:45;;;;;;;141.75;10.63;;;;;;;;;;4985725;28;20026;-58
2023/03/21 04:31:12;;;;;;;129.38;10.40;;;;;;;;;;4986903;28;20030;-58
2023/03/21 04:33:37;;;;;;;98.80;9.43;;;;;;;;;;4986411;28;20355;-56
2023/03/21 04:36:05;;;;;;;130.00;10.85;;;;;;;;;;4985584;28;20037;-56
2023/03/21 04:38:32;;;;;;;138.55;10.82;;;;;;;;;;4986912;28;20022;-56
2023/03/21 04:40:58;;;;;;;135.57;11.13;;;;;;;;;;4985844;28;20041;-58
2023/03/21 04:43:24;;;;;;;104.70;9.23;;;;;;;;;;4985532;28;20368;-56
2023/03/21 04:45:49;;;;;;;108.65;9.38;;;;;;;;;;4986320;28;20676;-58
2023/03/21 04:48:16;;;;;;;128.88;9.80;;;;;;;;;;4986267;28;20030;-56
2023/03/21 04:50:42;;;;;;;96.47;9.00;;;;;;;;;;4986508;28;20363;-58
2023/03/21 04:53:07;;;;;;;107.85;9.57;;;;;;;;;;4987428;28;20359;-56
2023/03/21 04:55:32;;;;;;;149.70;10.97;;;;;;;;;;4986652;28;20308;-57
2023/03/21 04:57:58;;;;;;;140.57;10.88;;;;;;;;;;4986896;28;20249;-56
2023/03/21 05:00:24;;;;;;;124.63;10.13;;;;;;;;;;4986946;28;20403;-57
2023/03/21 05:02:49;;;;;;;131.45;10.65;;;;;;;;;;4986535;28;20121;-58
2023/03/21 05:05:15;;;;;;;129.13;10.57;;;;;;;;;;4986176;28;20049;-58
2023/03/21 05:07:40;;;;;;;139.73;10.43;;;;;;;;;;4986363;28;20030;-56
2023/03/21 05:10:07;;;;;;;138.45;10.98;;;;;;;;;;4985188;28;20033;-56
2023/03/21 05:12:32;;;;;;;129.60;10.45;;;;;;;;;;4986357;28;20463;-57
2023/03/21 05:14:58;;;;;;;153.25;11.07;;;;;;;;;;4988041;28;20452;-56
2023/03/21 05:17:23;;;;;;;112.03;9.57;;;;;;;;;;4987715;28;20042;-58
2023/03/21 05:19:49;;;;;;;107.10;9.43;;;;;;;;;;4986272;28;20088;-57
2023/03/21 05:22:18;;;;;;;94.03;9.50;;;;;;;;;;4986992;28;20034;-57
2023/03/21 05:24:48;;;;;;;100.55;9.43;;;;;;;;;;4986983;28;20550;-57
2023/03/21 05:27:33;;;;;;;127.35;10.07;;;;;;;;;;4986201;28;20066;-59
2023/03/21 05:30:09;;;;;;;115.97;10.45;;;;;;;;;;4986648;28;20022;-58
2023/03/21 05:32:34;;;;;;;114.72;9.43;;;;;;;;;;4985264;28;20080;-58
2023/03/21 05:35:00;;;;;;;132.65;10.02;;;;;;;;;;4987202;28;20109;-57
2023/03/21 05:37:25;;;;;;;146.40;10.45;;;;;;;;;;4985656;28;20129;-58
2023/03/21 05:39:50;;;;;;;107.43;9.97;;;;;;;;;;4985666;28;20786;-59
2023/03/21 05:42:17;;;;;;;123.20;10.30;;;;;;;;;;4987200;28;20332;-58
2023/03/21 05:44:42;;;;;;;115.10;9.75;;;;;;;;;;4989936;28;20022;-56
2023/03/21 05:47:08;;;;;;;121.05;9.45;;;;;;;;;;4988775;28;20035;-57
2023/03/21 05:49:33;;;;;;;116.93;10.03;;;;;;;;;;4989280;28;20792;-57
2023/03/21 05:51:58;;;;;;;127.03;10.68;;;;;;;;;;4989703;28;20814;-57
2023/03/21 05:54:23;;;;;;;97.75;9.85;;;;;;;;;;4989343;28;20046;-56
2023/03/21 05:56:49;;;;;;;107.07;10.00;;;;;;;;;;4989110;28;20050;-58
2023/03/21 05:59:15;;;;;;;106.00;10.18;;;;;;;;;;4990392;28;20037;-57
2023/03/21 06:01:40;;;;;;;134.02;11.10;;;;;;;;;;4988410;28;20034;-58
2023/03/21 06:04:05;;;;;;;141.32;11.57;;;;;;;;;;4988865;28;20345;-57
2023/03/21 06:06:31;;;;;;;120.50;10.70;;;;;;;;;;4989741;28;20164;-56
2023/03/21 06:08:56;;;;;;;94.22;9.35;;;;;;;;;;4989699;28;20256;-57
2023/03/21 06:11:23;;;;;;;130.90;11.05;;;;;;;;;;4989245;28;20041;-59
2023/03/21 06:13:49;;;;;;;121.38;10.65;;;;;;;;;;4989267;28;20027;-58
2023/03/21 06:16:14;;;;;;;118.55;10.35;;;;;;;;;;4988277;28;20107;-58
2023/03/21 06:18:39;;;;;;;111.47;10.63;;;;;;;;;;4989018;28;20026;-58
2023/03/21 06:21:05;;;;;;;130.85;11.43;;;;;;;;;;4989583;28;20496;-58
2023/03/21 06:23:30;;;;;;;126.47;10.93;;;;;;;;;;4989053;28;20026;-59
2023/03/21 06:25:56;;;;;;;122.57;10.95;;;;;;;;;;4987974;28;20380;-60
2023/03/21 06:28:21;;;;;;;117.15;10.82;;;;;;;;;;4990335;28;20026;-59
2023/03/21 06:30:46;;;;;;;136.43;11.55;;;;;;;;;;4987794;28;20121;-59
2023/03/21 06:33:11;;;;;;;127.00;10.43;;;;;;;;;;4987903;28;20527;-58
2023/03/21 06:35:37;;;;;;;101.67;9.80;;;;;;;;;;4988953;28;20770;-59
2023/03/21 06:38:02;;;;;;;101.13;10.73;;;;;;;;;;4988325;28;20698;-57
2023/03/21 06:40:27;;;;;;;106.75;9.70;;;;;;;;;;4988208;28;20333;-57
2023/03/21 06:42:52;;;;;;;129.20;10.53;;;;;;;;;;4987946;28;20104;-58
2023/03/21 06:45:18;;;;;;;116.03;10.15;;;;;;;;;;4988341;28;20315;-58
2023/03/21 06:47:43;;;;;;;104.97;10.32;;;;;;;;;;4989208;28;20030;-59
2023/03/21 06:50:09;;;;;;;123.27;11.13;;;;;;;;;;4986287;28;20907;-58
2023/03/21 06:52:35;;;;;;;108.95;11.00;;;;;;;;;;4990174;28;20299;-58
2023/03/21 06:55:00;;;;;;;116.82;11.57;;;;;;;;;;4987592;28;20042;-57
2023/03/21 06:57:25;;;;;;;117.60;10.63;;;;;;;;;;4989220;28;20030;-58
2023/03/21 06:59:50;;;;;;;100.43;10.87;;;;;;;;;;4988326;28;20320;-59
2023/03/21 07:02:16;;;;;;;113.13;10.70;;;;;;;;;;4985907;28;20265;-59
2023/03/21 07:04:41;;;;;;;97.03;10.10;;;;;;;;;;4987524;28;20014;-57
2023/03/21 07:07:06;;;;;;;107.28;10.40;;;;;;;;;;4988238;28;20073;-59
2023/03/21 07:09:32;;;;;;;108.03;10.23;;;;;;;;;;4988844;28;20403;-54
2023/03/21 07:11:57;;;;;;;112.53;10.65;;;;;;;;;;4987070;28;20257;-56
2023/03/21 07:14:22;;;;;;;105.95;11.35;;;;;;;;;;4987248;28;20026;-58
2023/03/21 07:16:48;;;;;;;114.78;10.93;;;;;;;;;;4985850;28;20042;-58
2023/03/21 07:19:14;;;;;;;87.78;9.20;;;;;;;;;;4987300;28;20034;-57
2023/03/21 07:21:39;;;;;;;139.05;11.63;;;;;;;;;;4986030;28;20092;-58
2023/03/21 07:24:05;;;;;;;114.93;10.00;;;;;;;;;;4989528;28;20026;-57
2023/03/21 07:26:30;;;;;;;94.82;8.95;;;;;;;;;;4987476;28;20253;-57
2023/03/21 07:28:55;;;;;;;141.45;11.27;;;;;;;;;;4986346;28;20143;-56
2023/03/21 07:31:24;;;;;;;127.28;10.25;;;;;;;;;;4987178;28;20033;-58
2023/03/21 07:33:50;;;;;;;75.70;7.78;;;;;;;;;;4986924;28;20042;-59
2023/03/21 07:36:15;;;;;;;107.63;8.25;;;;;;;;;;4986526;28;20034;-59
2023/03/21 07:38:44;;;;;;;97.38;7.68;;;;;;;;;;4986907;28;20508;-58
2023/03/21 07:41:09;;;;;;;126.55;8.95;;;;;;;;;;4987349;28;20473;-58
2023/03/21 07:43:35;;;;;;;88.93;7.63;;;;;;;;;;4987392;28;20022;-60
2023/03/21 07:46:00;;;;;;;103.30;8.18;;;;;;;;;;4988580;28;20481;-60
2023/03/21 07:48:26;;;;;;;124.57;8.37;;;;;;;;;;4987859;28;20487;-59
2023/03/21 07:50:51;;;;;;;101.40;8.05;;;;;;;;;;4988959;28;20261;-60
2023/03/21 07:53:16;;;;;;;95.68;7.90;;;;;;;;;;4987117;28;20046;-58
2023/03/21 07:55:42;;;;;;;104.35;7.93;;;;;;;;;;4985967;28;20376;-58
2023/03/21 07:58:07;;;;;;;84.82;7.88;;;;;;;;;;4988250;28;20208;-58
2023/03/21 08:00:32;;;;;;;138.02;9.70;;;;;;;;;;4986447;28;20392;-59
2023/03/21 08:02:58;;;;;;;110.13;8.27;;;;;;;;;;4986284;28;20112;-60
2023/03/21 08:05:25;;;;;;;112.25;8.43;;;;;;;;;;4987514;28;20907;-60
2023/03/21 08:07:50;;;;;;;102.95;8.02;;;;;;;;;;4986922;28;20231;-59
2023/03/21 08:10:16;;;;;;;92.63;7.38;;;;;;;;;;4985224;28;20142;-59
2023/03/21 08:12:41;;;;;;;109.10;7.53;;;;;;;;;;4986743;28;20026;-57
2023/03/21 08:15:07;;;;;;;112.28;7.57;;;;;;;;;;4985631;28;20029;-60
2023/03/21 08:17:32;;;;;;;100.82;7.43;;;;;;;;;;4986817;28;20018;-58
2023/03/21 08:19:57;;;;;;;114.97;8.10;;;;;;;;;;4985719;28;20045;-59
2023/03/21 08:22:23;;;;;;;102.40;6.97;;;;;;;;;;4987190;28;20030;-60
2023/03/21 08:24:48;;;;;;;131.93;8.07;;;;;;;;;;4985715;28;20116;-61
2023/03/21 08:27:13;;;;;;;94.50;7.10;;;;;;;;;;4985185;28;20296;-61
2023/03/21 08:29:41;;;;;;;82.70;6.50;;;;;;;;;;4985430;28;20688;-59
2023/03/21 08:32:06;;;;;;;126.93;8.43;;;;;;;;;;4983877;28;20041;-62
2023/03/21 08:34:31;;;;;;;108.68;7.53;;;;;;;;;;4986088;28;20060;-61
2023/03/21 08:36:57;;;;;;;80.03;6.13;;;;;;;;;;4986375;28;20038;-59
2023/03/21 08:39:23;;;;;;;91.83;6.60;;;;;;;;;;4988085;28;20551;-61
2023/03/21 08:41:49;;;;;;;59.40;5.38;;;;;;;;;;4985877;28;20400;-58
2023/03/21 08:44:15;;;;;;;93.55;6.78;;;;;;;;;;4987755;28;20627;-59
2023/03/21 08:46:41;;;;;;;96.32;7.35;;;;;;;;;;4985268;28;20034;-59
2023/03/21 08:49:06;;;;;;;90.67;6.80;;;;;;;;;;4986605;28;20041;-59
2023/03/21 08:51:32;;;;;;;98.05;7.40;;;;;;;;;;4985224;28;20993;-58
2023/03/21 08:53:57;;;;;;;108.57;8.02;;;;;;;;;;4986190;28;20026;-58
2023/03/21 08:56:22;;;;;;;82.63;6.63;;;;;;;;;;4985536;28;20482;-59
2023/03/21 08:58:48;;;;;;;90.00;6.87;;;;;;;;;;4984403;28;20101;-61
2023/03/21 09:01:14;;;;;;;99.25;7.40;;;;;;;;;;4983657;28;20274;-59
2023/03/21 09:03:40;;;;;;;104.78;7.35;;;;;;;;;;4985246;28;20018;-59
2023/03/21 09:06:09;;;;;;;89.18;6.53;;;;;;;;;;4988786;28;20037;-57
2023/03/21 09:08:34;;;;;;;77.97;6.30;;;;;;;;;;4987329;28;20021;-60
2023/03/21 09:11:00;;;;;;;123.13;8.07;;;;;;;;;;4985697;28;20034;-60
2023/03/21 09:13:25;;;;;;;92.63;6.78;;;;;;;;;;4984544;28;20699;-60
2023/03/21 09:15:51;;;;;;;78.53;6.50;;;;;;;;;;4984841;28;20559;-59
2023/03/21 09:18:21;;;;;;;77.10;6.47;;;;;;;;;;4987125;28;20025;-59
2023/03/21 09:20:49;;;;;;;93.35;6.97;;;;;;;;;;4989609;28;20046;-59
2023/03/21 09:23:14;;;;;;;114.93;7.57;;;;;;;;;;4989908;28;20062;-58
2023/03/21 09:25:40;;;;;;;105.53;7.28;;;;;;;;;;4986655;28;20141;-57
2023/03/21 09:28:05;;;;;;;102.15;7.38;;;;;;;;;;4988564;28;20061;-60
2023/03/21 09:30:32;;;;;;;88.20;7.05;;;;;;;;;;4987785;28;20065;-60
2023/03/21 09:32:58;;;;;;;85.90;6.93;;;;;;;;;;4989989;28;20085;-60
2023/03/21 09:35:25;;;;;;;99.38;7.72;;;;;;;;;;4988618;28;22007;-60
2023/03/21 09:37:51;;;;;;;93.82;7.25;;;;;;;;;;4989071;28;20022;-58
2023/03/21 09:40:30;;;;;;;86.57;6.97;;;;;;;;;;4989973;28;20073;-60
2023/03/21 09:43:12;;;;;;;84.38;7.13;;;;;;;;;;4989189;28;20735;-58
2023/03/21 09:45:42;;;;;;;107.00;7.90;;;;;;;;;;4989290;28;20026;-58
2023/03/21 09:48:16;;;;;;;108.82;7.97;;;;;;;;;;4991201;28;20045;-58
2023/03/21 09:50:42;;;;;;;96.45;7.32;;;;;;;;;;4989197;28;20542;-58
2023/03/21 09:53:11;;;;;;;107.25;7.88;;;;;;;;;;4988089;28;20034;-59
2023/03/21 09:55:38;;;;;;;104.65;7.57;;;;;;;;;;4986607;28;20123;-60
2023/03/21 09:58:05;;;;;;;117.18;8.30;;;;;;;;;;4985608;28;20162;-60
2023/03/21 10:00:34;;;;;;;117.43;8.10;;;;;;;;;;4989024;28;20043;-60
2023/03/21 10:03:05;;;;;;;103.70;7.22;;;;;;;;;;4987599;28;20064;-59
2023/03/21 10:05:31;;;;;;;113.22;8.05;;;;;;;;;;4987991;28;20519;-59
2023/03/21 10:07:57;;;;;;;147.70;9.57;;;;;;;;;;4986002;28;20034;-60
2023/03/21 10:10:26;;;;;;;95.53;7.15;;;;;;;;;;4986881;28;20060;-59
2023/03/21 10:12:52;;;;;;;120.82;8.57;;;;;;;;;;4987212;28;20030;-60
2023/03/21 10:15:18;;;;;;;83.82;6.70;;;;;;;;;;4988037;28;20483;-58
2023/03/21 10:17:47;;;;;;;85.95;6.75;;;;;;;;;;4987239;28;20486;-58
2023/03/21 10:20:15;;;;;;;87.38;6.50;;;;;;;;;;4987686;28;20443;-58
2023/03/21 10:22:41;;;;;;;76.00;5.97;;;;;;;;;;4988184;28;20022;-58
2023/03/21 10:25:10;;;;;;;95.28;7.15;;;;;;;;;;4987573;28;20026;-60
2023/03/21 10:27:35;;;;;;;89.70;6.70;;;;;;;;;;4987168;28;20026;-60
2023/03/21 10:30:01;;;;;;;117.60;8.15;;;;;;;;;;4984512;28;20596;-58
2023/03/21 10:32:27;;;;;;;110.95;7.53;;;;;;;;;;4987151;28;20531;-60
2023/03/21 10:34:54;;;;;;;108.25;7.63;;;;;;;;;;4985878;28;20045;-60
2023/03/21 10:37:20;;;;;;;102.38;7.25;;;;;;;;;;4985642;28;20049;-60
2023/03/21 10:39:50;;;;;;;102.30;7.20;;;;;;;;;;4988187;28;20038;-58
2023/03/21 10:42:21;;;;;;;107.07;7.38;;;;;;;;;;4985311;28;20584;-59
2023/03/21 10:44:48;;;;;;;91.20;6.53;;;;;;;;;;4987883;28;20515;-58
2023/03/21 10:47:17;;;;;;;76.95;5.95;;;;;;;;;;4986152;28;20064;-60
2023/03/21 10:49:45;;;;;;;82.18;6.18;;;;;;;;;;4986145;28;20054;-57
2023/03/21 10:52:12;;;;;;;93.10;6.93;;;;;;;;;;4987093;28;20041;-60
2023/03/21 10:54:37;;;;;;;109.13;7.55;;;;;;;;;;4987218;28;20061;-58
2023/03/21 10:57:04;;;;;;;168.83;10.33;;;;;;;;;;4987442;28;20118;-59
2023/03/21 10:59:52;;;;;;;103.28;7.13;;;;;;;;;;4984868;28;20488;-60
2023/03/21 11:02:24;;;;;;;85.10;6.32;;;;;;;;;;4986803;28;20044;-59
2023/03/21 11:04:50;;;;;;;108.68;7.72;;;;;;;;;;4988413;28;20078;-57
2023/03/21 11:07:18;;;;;;;87.38;6.50;;;;;;;;;;4986625;28;20054;-58
2023/03/21 11:09:46;;;;;;;69.30;5.47;;;;;;;;;;4987980;28;20617;-60
2023/03/21 11:12:12;;;;;;;95.78;6.43;;;;;;;;;;4987075;28;20359;-60
2023/03/21 11:14:37;;;;;;;78.15;6.18;;;;;;;;;;4987229;28;20014;-60
2023/03/21 11:17:15;;;;;;;106.70;6.93;;;;;;;;;;4989420;28;20034;-59
2023/03/21 11:19:40;;;;;;;87.43;6.18;;;;;;;;;;4988410;28;20733;-59
2023/03/21 11:22:06;;;;;;;89.87;6.23;;;;;;;;;;4987964;28;20050;-59
2023/03/21 11:24:32;;;;;;;88.40;6.47;;;;;;;;;;4986304;28;20364;-59
2023/03/21 11:26:57;;;;;;;89.15;6.13;;;;;;;;;;4986521;28;20610;-58
2023/03/21 11:29:28;;;;;;;110.05;7.00;;;;;;;;;;4985297;28;20448;-58
2023/03/21 11:32:14;;;;;;;95.40;6.50;;;;;;;;;;4986172;28;20054;-59
2023/03/21 11:34:43;;;;;;;105.90;7.07;;;;;;;;;;4985390;28;20347;-59
2023/03/21 11:37:16;;;;;;;87.78;6.07;;;;;;;;;;4995527;28;20034;-59
2023/03/21 11:39:43;;;;;;;107.28;6.55;;;;;;;;;;4987763;28;20357;-60
2023/03/21 11:42:28;;;;;;;107.18;6.82;;;;;;;;;;4985780;28;20396;-59
2023/03/21 11:44:58;;;;;;;125.95;7.30;;;;;;;;;;4988585;28;20053;-59
2023/03/21 11:47:24;;;;;;;106.72;6.50;;;;;;;;;;4987511;28;20353;-58
2023/03/21 11:49:49;;;;;;;72.28;5.68;;;;;;;;;;4986780;28;21072;-60
2023/03/21 11:52:29;;;;;;;94.13;6.10;;;;;;;;;;4985230;28;20034;-58
2023/03/21 11:55:03;;;;;;;105.80;6.82;;;;;;;;;;4987266;28;20036;-60
2023/03/21 11:57:46;;;;;;;98.00;6.20;;;;;;;;;;4987914;28;20033;-59
2023/03/21 12:00:30;;;;;;;112.78;6.75;;;;;;;;;;4986095;28;20264;-59
2023/03/21 12:03:10;;;;;;;87.25;5.88;;;;;;;;;;4987037;28;20033;-59
2023/03/21 12:05:37;;;;;;;114.75;7.10;;;;;;;;;;4986920;28;20037;-57
2023/03/21 12:08:03;;;;;;;95.85;5.78;;;;;;;;;;4986828;28;20031;-59
2023/03/21 12:10:46;;;;;;;112.80;6.97;;;;;;;;;;4984478;28;20041;-59
2023/03/21 12:13:18;;;;;;;96.82;6.18;;;;;;;;;;4987362;28;20260;-58
2023/03/21 12:16:02;;;;;;;94.70;5.63;;;;;;;;;;4985663;28;20026;-57
2023/03/21 12:18:36;;;;;;;119.80;7.03;;;;;;;;;;4985866;28;20018;-58
2023/03/21 12:21:22;;;;;;;97.10;6.15;;;;;;;;;;4986013;28;20058;-60
2023/03/21 12:23:59;;;;;;;105.05;7.57;;;;;;;;;;4984540;28;20057;-59
2023/03/21 12:26:26;;;;;;;87.57;6.30;;;;;;;;;;4986537;28;20039;-58
2023/03/21 12:28:52;;;;;;;119.95;7.43;;;;;;;;;;4986816;28;20030;-59
2023/03/21 12:31:32;;;;;;;106.00;6.50;;;;;;;;;;4986521;28;20034;-59
2023/03/21 12:34:07;;;;;;;124.43;7.50;;;;;;;;;;4984856;28;20042;-58
2023/03/21 12:36:35;;;;;;;88.70;5.82;;;;;;;;;;4986564;28;20042;-58
2023/03/21 12:39:12;;;;;;;110.55;6.63;;;;;;;;;;4987976;28;20041;-59
2023/03/21 12:41:56;;;;;;;105.18;7.00;;;;;;;;;;4994762;28;20417;-60
2023/03/21 12:44:24;;;;;;;89.57;5.80;;;;;;;;;;4984937;28;20034;-60
2023/03/21 12:46:52;;;;;;;92.60;6.20;;;;;;;;;;4987233;28;20400;-60
2023/03/21 12:49:27;;;;;;;105.72;6.95;;;;;;;;;;4987287;28;20056;-60
2023/03/21 12:52:01;;;;;;;110.50;7.00;;;;;;;;;;4987023;28;20411;-59
2023/03/21 12:54:29;;;;;;;101.13;6.35;;;;;;;;;;4992807;28;20025;-60
2023/03/21 12:56:57;;;;;;;89.20;6.50;;;;;;;;;;4989814;28;20113;-58
2023/03/21 12:59:51;;;;;;;113.30;7.63;;;;;;;;;;4990422;28;20036;-57
2023/03/21 13:02:33;;;;;;;84.68;5.95;;;;;;;;;;4987367;28;20046;-58
2023/03/21 13:05:05;;;;;;;93.30;5.85;;;;;;;;;;4989384;28;20033;-57
2023/03/21 13:07:36;;;;;;;133.40;8.00;;;;;;;;;;4990214;28;20046;-57
2023/03/21 13:10:03;;;;;;;94.35;5.80;;;;;;;;;;4990317;28;20038;-58
2023/03/21 13:12:48;;;;;;;96.35;6.80;;;;;;;;;;4989694;28;20037;-57
2023/03/21 13:15:25;;;;;;;89.22;6.40;;;;;;;;;;4990736;28;20029;-58
2023/03/21 13:18:00;;;;;;;116.25;7.10;;;;;;;;;;4989621;28;20092;-61
2023/03/21 13:20:44;;;;;;;103.55;7.20;;;;;;;;;;4989574;28;20129;-59
2023/03/21 13:23:10;;;;;;;76.47;6.20;;;;;;;;;;4990113;28;20021;-60
2023/03/21 13:25:44;;;;;;;73.30;5.57;;;;;;;;;;4989296;28;20042;-58
2023/03/21 13:28:19;;;;;;;104.18;6.80;;;;;;;;;;4991850;28;20319;-58
2023/03/21 13:30:45;;;;;;;80.75;5.63;;;;;;;;;;4989379;28;20061;-59
2023/03/21 13:33:16;;;;;;;121.43;7.47;;;;;;;;;;4989095;28;20091;-59
2023/03/21 13:35:43;;;;;;;99.30;6.20;;;;;;;;;;4989641;28;20038;-59
2023/03/21 13:38:11;;;;;;;80.80;6.05;;;;;;;;;;4990982;28;20018;-58
2023/03/21 13:40:46;;;;;;;78.53;5.57;;;;;;;;;;4989394;28;20133;-59
2023/03/21 13:43:30;;;;;;;95.25;6.38;;;;;;;;;;4987954;28;20613;-57
2023/03/21 13:45:55;;;;;;;80.68;5.95;;;;;;;;;;4989632;28;20205;-58
2023/03/21 13:48:28;;;;;;;80.60;5.13;;;;;;;;;;4989787;28;20057;-57
2023/03/21 13:51:00;;;;;;;95.05;6.32;;;;;;;;;;4989661;28;20132;-57
2023/03/21 13:53:35;;;;;;;92.63;6.32;;;;;;;;;;4988515;28;20710;-58
2023/03/21 13:56:17;;;;;;;95.72;6.03;;;;;;;;;;4989411;28;20042;-57
2023/03/21 13:58:43;;;;;;;125.85;7.53;;;;;;;;;;4989387;28;20089;-60
2023/03/21 14:01:17;;;;;;;83.77;5.57;;;;;;;;;;4989498;28;20033;-58
2023/03/21 14:03:44;;;;;;;108.57;6.57;;;;;;;;;;4987845;28;20087;-57
2023/03/21 14:06:09;;;;;;;84.20;5.78;;;;;;;;;;4990453;28;20030;-58
2023/03/21 14:08:35;;;;;;;86.50;5.88;;;;;;;;;;4989112;28;20033;-59
2023/03/21 14:11:03;;;;;;;106.53;6.57;;;;;;;;;;4987824;28;20038;-58
2023/03/21 14:13:28;;;;;;;80.22;5.50;;;;;;;;;;4989126;28;20542;-58
2023/03/21 14:15:57;;;;;;;85.07;5.68;;;;;;;;;;4988579;28;20046;-59
2023/03/21 14:18:24;;;;;;;63.25;5.05;;;;;;;;;;4986751;28;20034;-57
2023/03/21 14:20:57;;;;;;;82.82;6.15;;;;;;;;;;4989727;28;20103;-58
2023/03/21 14:23:22;;;;;;;84.78;6.28;;;;;;;;;;4989659;28;20742;-59
2023/03/21 14:25:48;;;;;;;69.78;5.25;;;;;;;;;;4989148;28;20578;-59
2023/03/21 14:28:16;;;;;;;115.25;6.90;;;;;;;;;;4989632;28;20375;-60